createdAt,value
2019-02-25T00:01:28.838Z,73.3
2019-02-25T00:06:25.157Z,73.3
2019-02-25T00:11:21.530Z,71.1
2019-02-25T00:16:17.998Z,70.5
2019-02-25T00:21:14.285Z,71.2
2019-02-25T00:26:10.711Z,72.2
2019-02-25T00:31:07.361Z,72
2019-02-25T00:36:03.777Z,71.2
2019-02-25T00:41:00.060Z,73.7
2019-02-25T00:45:56.748Z,72.7
2019-02-25T00:50:53.262Z,72.4
2019-02-25T00:55:49.188Z,70.6
2019-02-25T01:00:45.441Z,72.2
2019-02-25T01:05:41.720Z,72.8
2019-02-25T01:10:38.030Z,72
2019-02-25T01:15:34.473Z,72.9
2019-02-25T01:20:30.281Z,73.1
2019-02-25T01:25:26.534Z,74.1
2019-02-25T01:30:22.405Z,72.9
2019-02-25T01:35:18.714Z,73.8
2019-02-25T01:40:15.308Z,72.4
2019-02-25T01:45:11.075Z,73
2019-02-25T01:50:07.100Z,73
2019-02-25T01:55:03.580Z,73.7
2019-02-25T02:00:00.219Z,73.6
2019-02-25T02:04:56.303Z,72.2
2019-02-25T02:09:52.361Z,73.5
2019-02-25T02:14:48.870Z,72.1
2019-02-25T02:19:45.323Z,69.2
2019-02-25T02:24:41.432Z,71.5
2019-02-25T02:29:37.444Z,70.7
2019-02-25T02:34:33.486Z,72.3
2019-02-25T02:39:29.705Z,71.4
2019-02-25T02:44:26.071Z,71.5
2019-02-25T02:49:22.499Z,72.6
2019-02-25T02:54:18.821Z,74.3
2019-02-25T02:59:15.398Z,72.6
2019-02-25T03:04:12.110Z,69.7
2019-02-25T03:09:07.693Z,70.8
2019-02-25T03:14:04.221Z,73.1
2019-02-25T03:19:00.636Z,71.3
2019-02-25T03:23:57.371Z,70.7
2019-02-25T03:28:53.712Z,71.5
2019-02-25T03:33:50.154Z,71.2
2019-02-25T03:38:46.551Z,73.3
2019-02-25T03:43:42.569Z,73.3
2019-02-25T03:48:38.698Z,73.6
2019-02-25T03:53:35.121Z,75.8
2019-02-25T03:58:31.489Z,74.5
2019-02-25T04:03:27.755Z,74.8
2019-02-25T04:08:23.446Z,73.9
2019-02-25T04:13:19.959Z,74.6
2019-02-25T04:18:16.469Z,75.4
2019-02-25T04:23:12.644Z,75.5
2019-02-25T04:28:08.906Z,74.4
2019-02-25T04:33:05.332Z,74.9
2019-02-25T04:38:03.246Z,75.6
2019-02-25T04:42:59.467Z,73.4
2019-02-25T04:47:55.865Z,73.1
2019-02-25T04:52:52.486Z,74.5
2019-02-25T04:57:49.218Z,71.3
2019-02-25T05:02:45.785Z,70.3
2019-02-25T05:07:42.400Z,70.4
2019-02-25T05:12:38.977Z,67.8
2019-02-25T05:17:35.232Z,71.4
2019-02-25T05:22:31.235Z,70.5
2019-02-25T05:27:27.728Z,67.8
2019-02-25T05:32:24.338Z,70.8
2019-02-25T05:37:20.544Z,71.1
2019-02-25T05:42:17.185Z,68.2
2019-02-25T05:47:13.512Z,69.1
2019-02-25T05:52:09.526Z,66.3
2019-02-25T05:57:05.514Z,66.5
2019-02-25T06:02:01.911Z,68
2019-02-25T06:06:59.653Z,61.4
2019-02-25T06:11:56.467Z,62.9
2019-02-25T06:16:53.848Z,60.5
2019-02-25T06:21:50.996Z,58.3
2019-02-25T06:26:48.439Z,56.8
2019-02-25T06:31:44.959Z,58.3
2019-02-25T06:36:41.010Z,56.7
2019-02-25T06:41:38.063Z,54.9
2019-02-25T06:46:34.052Z,52.5
2019-02-25T06:51:31.164Z,52.3
2019-02-25T06:56:27.172Z,53.5
2019-02-25T07:01:23.365Z,53.2
2019-02-25T07:06:20.684Z,51.2
2019-02-25T07:11:17.776Z,54.6
2019-02-25T07:16:14.207Z,50.2
2019-02-25T07:21:10.377Z,52.9
2019-02-25T07:26:07.545Z,49.3
2019-02-25T07:31:02.743Z,52.2
2019-02-25T07:35:59.822Z,48.7
2019-02-25T07:40:55.260Z,49
2019-02-25T07:45:51.082Z,48.5
2019-02-25T07:50:48.457Z,50.5
2019-02-25T07:55:44.601Z,49.3
2019-02-25T08:00:41.573Z,48.6
2019-02-25T08:05:38.932Z,47.7
2019-02-25T08:10:35.432Z,47.4
2019-02-25T08:15:31.344Z,46.3
2019-02-25T08:20:28.306Z,45.5
2019-02-25T08:25:25.120Z,45.6
2019-02-25T08:30:20.982Z,46.6
2019-02-25T08:35:17.934Z,45.4
2019-02-25T08:40:14.298Z,43.5
2019-02-25T08:45:10.531Z,42.1
2019-02-25T08:50:07.385Z,41
2019-02-25T08:55:03.819Z,43
2019-02-25T09:00:00.483Z,41.3
2019-02-25T09:04:57.564Z,42
2019-02-25T09:09:53.060Z,43.3
2019-02-25T09:14:49.779Z,40.8
2019-02-25T09:19:47.195Z,42.6
2019-02-25T09:24:44.474Z,40.9
2019-02-25T09:29:41.105Z,38.6
2019-02-25T09:34:37.318Z,39.9
2019-02-25T09:39:33.775Z,37.8
2019-02-25T09:44:31.755Z,36
2019-02-25T09:49:28.465Z,38.5
2019-02-25T09:54:24.722Z,37.6
2019-02-25T09:59:21.521Z,37.4
2019-02-25T10:04:19.106Z,33.6
2019-02-25T10:09:15.532Z,32.7
2019-02-25T10:14:09.862Z,36.9
2019-02-25T10:19:08.066Z,38.8
2019-02-25T10:24:05.360Z,36.7
2019-02-25T10:29:00.548Z,34.6
2019-02-25T10:33:56.095Z,36.8
2019-02-25T10:38:51.096Z,36.2
2019-02-25T10:43:47.946Z,36.3
2019-02-25T10:48:50.684Z,36.9
2019-02-25T10:53:51.523Z,35.5
2019-02-25T10:58:46.776Z,37.3
2019-02-25T11:03:47.679Z,37.2
2019-02-25T11:08:45.813Z,38.5
2019-02-25T11:13:42.631Z,34.2
2019-02-25T11:18:40.847Z,37.6
2019-02-25T11:23:37.861Z,35.9
2019-02-25T11:28:39.204Z,38.5
2019-02-25T11:33:36.941Z,36.5
2019-02-25T11:38:37.495Z,35.4
2019-02-25T11:43:32.915Z,36.7
2019-02-25T11:48:29.094Z,37.2
2019-02-25T11:53:24.576Z,36.7
2019-02-25T11:58:22.786Z,38.5
2019-02-25T12:03:18.066Z,37.1
2019-02-25T12:08:14.301Z,35.7
2019-02-25T12:13:11.176Z,35.7
2019-02-25T12:18:07.901Z,35.4
2019-02-25T12:23:03.838Z,37.9
2019-02-25T12:28:00.845Z,37.9
2019-02-25T12:32:58.601Z,36.2
2019-02-25T12:37:54.960Z,37
2019-02-25T12:42:49.828Z,36.1
2019-02-25T12:47:46.388Z,35.3
2019-02-25T12:52:43.245Z,36
2019-02-25T12:57:40.015Z,37
2019-02-25T13:02:36.448Z,36.5
2019-02-25T13:07:32.509Z,36.3
2019-02-25T13:12:28.287Z,37.5
2019-02-25T13:17:25.379Z,38.2
2019-02-25T13:22:21.963Z,38.1
2019-02-25T13:27:18.612Z,37.8
2019-02-25T13:32:15.572Z,38.8
2019-02-25T13:37:11.539Z,36.2
2019-02-25T13:42:07.784Z,36.1
2019-02-25T13:47:04.785Z,36.5
2019-02-25T13:52:01.303Z,38.1
2019-02-25T13:56:58.611Z,39.4
2019-02-25T14:01:54.216Z,39.5
2019-02-25T14:06:51.137Z,39.3
2019-02-25T14:11:47.570Z,40
2019-02-25T14:16:44.622Z,41.2
2019-02-25T14:21:41.568Z,41.6
2019-02-25T14:26:38.449Z,41.4
2019-02-25T14:31:35.063Z,42.3
2019-02-25T14:36:31.380Z,41.8
2019-02-25T14:41:27.390Z,43
2019-02-25T14:46:26.945Z,43.8
2019-02-25T14:51:22.289Z,43.9
2019-02-25T14:56:19.039Z,43.1
2019-02-25T15:01:15.247Z,45
2019-02-25T15:06:11.414Z,45.1
2019-02-25T15:11:12.596Z,48.2
2019-02-25T15:16:08.442Z,48
2019-02-25T15:21:07.345Z,48.9
2019-02-25T15:26:07.430Z,50.4
2019-02-25T15:31:06.889Z,51.9
2019-02-25T15:36:02.937Z,49.8
2019-02-25T15:41:02.687Z,53.3
2019-02-25T15:45:59.746Z,53
2019-02-25T15:51:00.668Z,54.7
2019-02-25T15:56:01.370Z,53.7
2019-02-25T16:00:56.832Z,55.3
2019-02-25T16:06:01.555Z,54.6
2019-02-25T16:11:00.211Z,55.5
2019-02-25T16:15:55.979Z,54
2019-02-25T16:20:52.476Z,52.5
2019-02-25T16:25:53.010Z,57.6
2019-02-25T16:30:51.582Z,59.6
2019-02-25T16:35:47.659Z,59.2
2019-02-25T16:40:44.387Z,58.9
2019-02-25T16:45:46.978Z,57.6
2019-02-25T16:50:46.375Z,59.6
2019-02-25T16:55:45.106Z,62.3
2019-02-25T17:00:42.364Z,62.9
2019-02-25T17:05:44.881Z,63.6
2019-02-25T17:10:40.686Z,64.8
2019-02-25T17:15:36.991Z,63.9
2019-02-25T17:20:33.514Z,67.9
2019-02-25T17:25:34.000Z,65.3
2019-02-25T17:30:29.438Z,68.7
2019-02-25T17:35:30.658Z,67.8
2019-02-25T17:40:26.613Z,67.9
2019-02-25T17:45:29.138Z,66.1
2019-02-25T17:50:23.731Z,67.1
2019-02-25T17:55:20.488Z,66.5
2019-02-25T18:00:17.984Z,67.2
2019-02-25T18:05:18.442Z,66.1
2019-02-25T18:10:14.406Z,66.1
2019-02-25T18:15:11.369Z,67.9
2019-02-25T18:20:09.201Z,66.5
2019-02-25T18:25:05.463Z,68
2019-02-25T18:30:01.415Z,68.6
2019-02-25T18:35:00.538Z,68.7
2019-02-25T18:39:56.818Z,65.7
2019-02-25T18:44:53.742Z,68.3
2019-02-25T18:49:52.660Z,69.2
2019-02-25T18:54:49.897Z,68.2
2019-02-25T18:59:46.354Z,70.1
2019-02-25T19:04:45.614Z,68.7
2019-02-25T19:09:45.189Z,70.2
2019-02-25T19:14:41.822Z,68.4
2019-02-25T19:19:41.209Z,68.3
2019-02-25T19:24:44.345Z,68.9
2019-02-25T19:29:39.534Z,69.6
2019-02-25T19:34:39.956Z,70
2019-02-25T19:39:41.107Z,70
2019-02-25T19:44:38.610Z,70.5
2019-02-25T19:49:38.816Z,69.9
2019-02-25T19:54:40.695Z,72
2019-02-25T19:59:39.653Z,71.5
2019-02-25T20:04:39.712Z,70.5
2019-02-25T20:09:36.118Z,69.8
2019-02-25T20:14:32.671Z,70.8
2019-02-25T20:19:28.647Z,72.1
2019-02-25T20:24:25.873Z,70.2
2019-02-25T20:29:21.836Z,71.5
2019-02-25T20:34:22.900Z,70.5
2019-02-25T20:39:18.702Z,69.3
2019-02-25T20:44:14.616Z,68.2
2019-02-25T20:49:18.181Z,70.6
2019-02-25T20:54:20.352Z,68.1
2019-02-25T20:59:15.918Z,70.1
2019-02-25T21:04:15.629Z,71.9
2019-02-25T21:09:12.073Z,70.5
2019-02-25T21:14:08.385Z,64.8
2019-02-25T21:19:04.861Z,70.8
2019-02-25T21:24:06.037Z,71.7
2019-02-25T21:29:05.037Z,69.4
2019-02-25T21:34:01.941Z,67.7
2019-02-25T21:38:58.467Z,67.8
2019-02-25T21:43:59.297Z,66.7
2019-02-25T21:48:57.853Z,67
2019-02-25T21:53:59.877Z,70.2
2019-02-25T21:58:55.793Z,68
2019-02-25T22:03:54.584Z,67.3
2019-02-25T22:08:56.234Z,70
2019-02-25T22:13:52.002Z,68.3
2019-02-25T22:18:54.122Z,66.6
2019-02-25T22:23:55.928Z,68.7
2019-02-25T22:28:55.261Z,68.1
2019-02-25T22:33:50.930Z,69.1
2019-02-25T22:38:47.341Z,67.5
2019-02-25T22:43:48.185Z,67.9
2019-02-25T22:48:47.352Z,68.2
2019-02-25T22:53:43.055Z,67.3
2019-02-25T22:58:43.061Z,69
2019-02-25T23:03:45.094Z,67.4
2019-02-25T23:08:46.173Z,68
2019-02-25T23:13:46.031Z,66.8
2019-02-25T23:18:43.029Z,66.8
2019-02-25T23:23:40.391Z,67.5
2019-02-25T23:28:36.877Z,67.5
2019-02-25T23:33:33.234Z,68.1
2019-02-25T23:38:29.837Z,67.3
2019-02-25T23:43:25.856Z,66.1
2019-02-25T23:48:26.386Z,67.3
2019-02-25T23:53:26.661Z,68.2
2019-02-25T23:58:24.326Z,67.3
